createdAt,value
2023-03-05T00:01:25.821Z,5.60
2023-03-05T00:03:56.010Z,8.90
2023-03-05T00:06:24.983Z,4.43
2023-03-05T00:08:53.714Z,5.57
2023-03-05T00:11:22.643Z,4.97
2023-03-05T00:13:53.436Z,5.80
2023-03-05T00:16:21.904Z,6.57
2023-03-05T00:18:50.384Z,4.70
2023-03-05T00:21:25.169Z,5.40
2023-03-05T00:24:01.685Z,5.80
2023-03-05T00:26:30.638Z,6.37
2023-03-05T00:28:59.928Z,5.10
2023-03-05T00:31:30.440Z,9.33
2023-03-05T00:33:59.927Z,7.47
2023-03-05T00:36:30.162Z,6.83
2023-03-05T00:39:00.670Z,7.23
2023-03-05T00:41:29.734Z,5.47
2023-03-05T00:44:02.464Z,6.57
2023-03-05T00:46:31.060Z,10.90
2023-03-05T00:48:59.878Z,8.67
2023-03-05T00:51:30.696Z,3.93
2023-03-05T00:53:59.577Z,6.00
2023-03-05T00:56:28.296Z,4.23
2023-03-05T00:58:56.868Z,6.20
2023-03-05T01:01:28.995Z,5.93
2023-03-05T01:03:59.667Z,5.03
2023-03-05T01:06:29.897Z,5.80
2023-03-05T01:09:01.387Z,6.23
2023-03-05T01:11:32.732Z,7.17
2023-03-05T01:14:01.189Z,5.57
2023-03-05T01:16:30.517Z,7.30
2023-03-05T01:18:58.990Z,6.87
2023-03-05T01:21:27.459Z,4.43
2023-03-05T01:23:56.211Z,6.23
2023-03-05T01:26:26.021Z,5.97
2023-03-05T01:28:54.639Z,4.83
2023-03-05T01:31:23.281Z,13.17
2023-03-05T01:33:53.689Z,8.17
2023-03-05T01:36:23.455Z,6.60
2023-03-05T01:38:52.000Z,5.33
2023-03-05T01:41:21.057Z,5.97
2023-03-05T01:43:52.965Z,8.83
2023-03-05T01:46:36.344Z,2.90
2023-03-05T01:49:15.550Z,7.43
2023-03-05T01:51:45.409Z,10.03
2023-03-05T01:54:14.041Z,6.80
2023-03-05T01:56:42.684Z,4.53
2023-03-05T01:59:12.608Z,7.43
2023-03-05T02:01:41.844Z,5.63
2023-03-05T02:04:11.163Z,5.93
2023-03-05T02:06:40.197Z,8.80
2023-03-05T02:09:09.636Z,5.27
2023-03-05T02:11:38.189Z,5.13
2023-03-05T02:14:08.441Z,9.67
2023-03-05T02:16:39.856Z,6.53
2023-03-05T02:19:09.378Z,5.33
2023-03-05T02:21:40.602Z,7.63
2023-03-05T02:24:09.487Z,7.80
2023-03-05T02:26:38.384Z,6.37
2023-03-05T02:29:07.505Z,6.37
2023-03-05T02:31:36.640Z,8.00
2023-03-05T02:34:05.179Z,4.07
2023-03-05T02:36:33.696Z,7.20
2023-03-05T02:39:03.687Z,4.93
2023-03-05T02:41:32.223Z,6.07
2023-03-05T02:44:00.878Z,6.20
2023-03-05T02:46:29.418Z,4.53
2023-03-05T02:48:57.912Z,2.87
2023-03-05T02:51:26.560Z,4.50
2023-03-05T02:53:55.159Z,4.20
2023-03-05T02:56:25.113Z,5.03
2023-03-05T02:58:53.505Z,6.77
2023-03-05T03:01:22.090Z,4.27
2023-03-05T03:03:50.472Z,5.67
2023-03-05T03:06:19.100Z,4.30
2023-03-05T03:08:47.508Z,4.60
2023-03-05T03:11:16.064Z,3.30
2023-03-05T03:13:46.025Z,5.93
2023-03-05T03:16:15.082Z,4.73
2023-03-05T03:18:44.167Z,2.80
2023-03-05T03:21:18.209Z,7.30
2023-03-05T03:23:46.680Z,2.83
2023-03-05T03:26:15.250Z,6.27
2023-03-05T03:28:43.753Z,5.17
2023-03-05T03:31:13.774Z,5.40
2023-03-05T03:33:42.668Z,3.70
2023-03-05T03:36:11.528Z,6.00
2023-03-05T03:38:40.677Z,3.57
2023-03-05T03:41:09.304Z,2.60
2023-03-05T03:43:37.793Z,4.20
2023-03-05T03:46:07.060Z,4.33
2023-03-05T03:48:37.125Z,2.67
2023-03-05T03:51:06.362Z,2.70
2023-03-05T03:53:34.911Z,1.77
2023-03-05T03:56:03.599Z,2.20
2023-03-05T03:58:31.973Z,0.90
2023-03-05T04:01:00.632Z,3.53
2023-03-05T04:03:29.615Z,3.73
2023-03-05T04:05:59.553Z,1.67
2023-03-05T04:08:28.120Z,2.93
2023-03-05T04:10:56.686Z,2.77
2023-03-05T04:13:25.236Z,5.37
2023-03-05T04:15:54.075Z,2.57
2023-03-05T04:18:22.552Z,1.57
2023-03-05T04:20:51.041Z,1.27
2023-03-05T04:23:21.120Z,1.70
2023-03-05T04:25:49.597Z,3.77
2023-03-05T04:28:19.164Z,3.43
2023-03-05T04:30:47.667Z,3.93
2023-03-05T04:33:16.162Z,3.03
2023-03-05T04:35:44.621Z,4.00
2023-03-05T04:38:13.208Z,2.33
2023-03-05T04:40:43.149Z,4.33
2023-03-05T04:43:11.491Z,2.17
2023-03-05T04:45:41.476Z,2.17
2023-03-05T04:48:10.264Z,3.23
2023-03-05T04:50:38.788Z,2.50
2023-03-05T04:53:07.429Z,6.03
2023-03-05T04:55:35.862Z,2.37
2023-03-05T04:58:05.682Z,2.93
2023-03-05T05:00:34.347Z,1.60
2023-03-05T05:03:02.856Z,4.50
2023-03-05T05:05:31.227Z,2.57
2023-03-05T05:07:59.879Z,2.07
2023-03-05T05:10:28.299Z,2.13
2023-03-05T05:12:56.768Z,2.57
2023-03-05T05:15:26.854Z,3.40
2023-03-05T05:17:55.317Z,3.47
2023-03-05T05:20:24.141Z,2.80
2023-03-05T05:22:52.736Z,2.30
2023-03-05T05:25:21.281Z,2.00
2023-03-05T05:27:49.785Z,1.93
2023-03-05T05:30:18.436Z,3.30
2023-03-05T05:32:48.759Z,4.87
2023-03-05T05:35:17.430Z,3.57
2023-03-05T05:37:45.883Z,1.90
2023-03-05T05:40:15.070Z,3.73
2023-03-05T05:42:44.564Z,1.10
2023-03-05T05:45:13.372Z,5.43
2023-03-05T05:47:41.912Z,4.07
2023-03-05T05:50:13.061Z,2.43
2023-03-05T05:52:41.590Z,3.47
2023-03-05T05:55:10.555Z,4.10
2023-03-05T05:57:38.918Z,7.20
2023-03-05T06:00:08.543Z,3.60
2023-03-05T06:02:38.277Z,2.60
2023-03-05T06:05:07.447Z,4.27
2023-03-05T06:07:37.487Z,6.67
2023-03-05T06:10:06.281Z,6.53
2023-03-05T06:12:35.299Z,4.40
2023-03-05T06:15:03.723Z,1.73
2023-03-05T06:17:32.192Z,2.67
2023-03-05T06:20:01.134Z,1.10
2023-03-05T06:22:29.760Z,1.57
2023-03-05T06:24:59.721Z,2.37
2023-03-05T06:27:28.114Z,4.10
2023-03-05T06:29:57.417Z,1.83
2023-03-05T06:32:26.215Z,2.30
2023-03-05T06:34:55.020Z,3.80
2023-03-05T06:37:23.717Z,1.93
2023-03-05T06:39:52.271Z,1.23
2023-03-05T06:42:22.159Z,1.77
2023-03-05T06:44:50.713Z,1.47
2023-03-05T06:47:19.236Z,1.70
2023-03-05T06:49:47.832Z,2.40
2023-03-05T06:52:16.250Z,1.67
2023-03-05T06:54:44.832Z,4.37
2023-03-05T06:57:14.089Z,2.77
2023-03-05T06:59:44.461Z,2.57
2023-03-05T07:02:13.841Z,2.83
2023-03-05T07:04:42.349Z,3.60
2023-03-05T07:07:10.862Z,4.20
2023-03-05T07:09:43.240Z,3.00
2023-03-05T07:12:11.896Z,4.20
2023-03-05T07:14:44.934Z,1.73
2023-03-05T07:17:15.371Z,2.40
2023-03-05T07:19:44.061Z,3.70
2023-03-05T07:22:12.726Z,5.23
2023-03-05T07:24:41.167Z,4.27
2023-03-05T07:27:09.743Z,7.80
2023-03-05T07:29:38.903Z,3.23
2023-03-05T07:32:09.482Z,3.33
2023-03-05T07:34:39.426Z,2.80
2023-03-05T07:37:07.852Z,4.40
2023-03-05T07:39:36.386Z,5.13
2023-03-05T07:42:05.335Z,8.70
2023-03-05T07:44:33.979Z,1.93
2023-03-05T07:47:02.445Z,4.83
2023-03-05T07:49:32.740Z,3.63
2023-03-05T07:52:01.488Z,3.43
2023-03-05T07:54:30.026Z,3.30
2023-03-05T07:56:58.817Z,8.17
2023-03-05T07:59:27.484Z,5.23
2023-03-05T08:01:56.027Z,7.03
2023-03-05T08:04:25.001Z,5.77
2023-03-05T08:06:54.949Z,10.73
2023-03-05T08:09:23.459Z,4.30
2023-03-05T08:11:52.101Z,3.27
2023-03-05T08:14:20.550Z,2.67
2023-03-05T08:16:52.207Z,3.63
2023-03-05T08:19:21.382Z,3.83
2023-03-05T08:21:49.853Z,2.70
2023-03-05T08:24:20.005Z,6.20
2023-03-05T08:26:48.923Z,4.07
2023-03-05T08:29:17.494Z,5.67
2023-03-05T08:31:47.300Z,2.60
2023-03-05T08:34:16.174Z,1.67
2023-03-05T08:36:45.620Z,5.63
2023-03-05T08:39:14.163Z,5.83
2023-03-05T08:41:44.172Z,6.17
2023-03-05T08:44:12.915Z,5.20
2023-03-05T08:46:41.485Z,6.03
2023-03-05T08:49:10.009Z,4.40
2023-03-05T08:51:38.499Z,2.83
2023-03-05T08:54:08.564Z,4.10
2023-03-05T08:56:37.122Z,5.47
2023-03-05T08:59:07.032Z,3.57
2023-03-05T09:01:35.713Z,2.43
2023-03-05T09:04:04.565Z,2.43
2023-03-05T09:06:34.415Z,2.80
2023-03-05T09:09:02.972Z,2.60
2023-03-05T09:11:31.424Z,2.53
2023-03-05T09:13:59.824Z,2.93
2023-03-05T09:16:29.775Z,0.70
2023-03-05T09:18:58.225Z,0.87
2023-03-05T09:21:27.330Z,3.07
2023-03-05T09:23:59.673Z,3.80
2023-03-05T09:26:28.467Z,3.43
2023-03-05T09:28:56.964Z,4.07
2023-03-05T09:31:26.109Z,5.40
2023-03-05T09:33:56.163Z,5.53
2023-03-05T09:36:25.716Z,5.27
2023-03-05T09:38:54.388Z,5.03
2023-03-05T09:41:30.059Z,1.70
2023-03-05T09:44:01.480Z,2.30
2023-03-05T09:46:42.926Z,4.00
2023-03-05T09:49:15.594Z,1.17
2023-03-05T09:51:48.089Z,4.13
2023-03-05T09:54:18.123Z,4.57
2023-03-05T09:56:47.857Z,4.80
2023-03-05T09:59:19.387Z,2.77
2023-03-05T10:01:48.102Z,2.73
2023-03-05T10:04:18.317Z,2.10
2023-03-05T10:06:49.526Z,3.00
2023-03-05T10:09:21.029Z,3.47
2023-03-05T10:12:11.675Z,2.17
2023-03-05T10:14:40.541Z,2.43
2023-03-05T10:17:22.887Z,2.97
2023-03-05T10:19:57.790Z,4.43
2023-03-05T10:22:28.807Z,2.03
2023-03-05T10:25:12.224Z,2.40
2023-03-05T10:27:42.592Z,3.73
2023-03-05T10:30:14.949Z,3.13
2023-03-05T10:32:44.775Z,1.80
2023-03-05T10:35:20.195Z,5.17
2023-03-05T10:37:56.976Z,2.03
2023-03-05T10:40:27.874Z,1.33
2023-03-05T10:43:00.375Z,1.83
2023-03-05T10:45:30.428Z,3.80
2023-03-05T10:47:59.495Z,2.90
2023-03-05T10:50:29.829Z,4.40
2023-03-05T10:53:04.968Z,1.13
2023-03-05T10:55:34.828Z,5.40
2023-03-05T10:58:05.508Z,3.67
2023-03-05T11:00:35.110Z,3.23
2023-03-05T11:03:04.373Z,3.43
2023-03-05T11:05:44.175Z,4.17
2023-03-05T11:08:33.223Z,5.20
2023-03-05T11:11:10.900Z,3.87
2023-03-05T11:13:40.871Z,4.23
2023-03-05T11:16:09.574Z,2.87
2023-03-05T11:18:38.320Z,2.17
2023-03-05T11:21:12.575Z,1.87
2023-03-05T11:23:41.154Z,5.13
2023-03-05T11:26:18.921Z,2.40
2023-03-05T11:28:57.517Z,3.37
2023-03-05T11:31:26.628Z,2.00
2023-03-05T11:34:01.916Z,1.23
2023-03-05T11:36:32.594Z,3.10
2023-03-05T11:39:02.315Z,1.80
2023-03-05T11:41:35.112Z,2.00
2023-03-05T11:44:05.834Z,2.77
2023-03-05T11:46:36.949Z,0.73
2023-03-05T11:49:05.956Z,3.73
2023-03-05T11:51:38.358Z,1.17
2023-03-05T11:54:08.348Z,2.13
2023-03-05T11:56:37.892Z,2.17
2023-03-05T11:59:06.841Z,3.90
2023-03-05T12:01:36.724Z,1.07
2023-03-05T12:04:05.552Z,3.10
2023-03-05T12:06:37.161Z,4.27
2023-03-05T12:09:06.234Z,2.60
2023-03-05T12:11:34.844Z,3.13
2023-03-05T12:14:04.918Z,1.50
2023-03-05T12:16:35.084Z,1.73
2023-03-05T12:19:25.537Z,6.03
2023-03-05T12:21:55.497Z,2.30
2023-03-05T12:24:38.767Z,2.63
2023-03-05T12:27:09.273Z,1.97
2023-03-05T12:29:41.830Z,1.13
2023-03-05T12:32:25.932Z,5.13
2023-03-05T12:34:58.428Z,3.40
2023-03-05T12:37:45.669Z,2.53
2023-03-05T12:40:31.719Z,2.53
2023-03-05T12:43:02.849Z,1.77
2023-03-05T12:45:52.122Z,1.53
2023-03-05T12:48:37.049Z,2.13
2023-03-05T12:51:05.702Z,3.07
2023-03-05T12:53:34.176Z,2.90
2023-03-05T12:56:03.999Z,1.17
2023-03-05T12:58:38.237Z,1.17
2023-03-05T13:01:08.613Z,2.10
2023-03-05T13:03:37.590Z,4.47
2023-03-05T13:06:08.169Z,3.43
2023-03-05T13:08:37.646Z,4.73
2023-03-05T13:11:06.679Z,1.43
2023-03-05T13:13:35.909Z,1.30
2023-03-05T13:16:05.863Z,5.20
2023-03-05T13:18:34.493Z,3.10
2023-03-05T13:21:04.514Z,3.80
2023-03-05T13:23:33.045Z,1.47
2023-03-05T13:26:02.726Z,1.70
2023-03-05T13:28:31.248Z,3.13
2023-03-05T13:31:00.149Z,1.80
2023-03-05T13:33:30.180Z,2.53
2023-03-05T13:35:59.175Z,3.03
2023-03-05T13:38:31.202Z,0.70
2023-03-05T13:41:04.360Z,1.87
2023-03-05T13:43:32.873Z,4.40
2023-03-05T13:46:01.323Z,2.20
2023-03-05T13:48:31.440Z,1.60
2023-03-05T13:50:59.853Z,2.87
2023-03-05T13:53:28.713Z,1.57
2023-03-05T13:55:59.220Z,2.43
2023-03-05T13:58:52.545Z,1.47
2023-03-05T14:01:27.532Z,2.37
2023-03-05T14:03:57.954Z,2.07
2023-03-05T14:06:27.820Z,1.07
2023-03-05T14:08:59.300Z,0.60
2023-03-05T14:11:29.193Z,1.70
2023-03-05T14:14:00.865Z,2.63
2023-03-05T14:16:32.734Z,2.67
2023-03-05T14:19:03.266Z,2.57
2023-03-05T14:21:48.300Z,4.10
2023-03-05T14:24:21.000Z,2.20
2023-03-05T14:26:53.862Z,4.83
2023-03-05T14:29:24.313Z,1.03
2023-03-05T14:31:53.358Z,1.70
2023-03-05T14:34:28.368Z,0.90
2023-03-05T14:36:57.952Z,2.63
2023-03-05T14:39:28.960Z,1.33
2023-03-05T14:41:57.480Z,1.70
2023-03-05T14:44:26.642Z,2.50
2023-03-05T14:46:55.159Z,1.93
2023-03-05T14:49:23.649Z,2.10
2023-03-05T14:51:53.490Z,2.73
2023-03-05T14:54:22.236Z,4.83
2023-03-05T14:56:50.775Z,1.83
2023-03-05T14:59:19.317Z,2.43
2023-03-05T15:01:47.872Z,1.13
2023-03-05T15:04:19.191Z,0.87
2023-03-05T15:06:50.640Z,1.70
2023-03-05T15:09:21.312Z,4.00
2023-03-05T15:11:53.133Z,1.00
2023-03-05T15:14:22.006Z,1.53
2023-03-05T15:16:50.580Z,5.33
2023-03-05T15:19:19.538Z,1.83
2023-03-05T15:21:48.233Z,4.03
2023-03-05T15:24:16.822Z,1.20
2023-03-05T15:26:48.644Z,1.23
2023-03-05T15:29:18.737Z,3.47
2023-03-05T15:31:47.187Z,4.07
2023-03-05T15:34:15.674Z,1.60
2023-03-05T15:36:44.264Z,3.00
2023-03-05T15:39:13.017Z,2.97
2023-03-05T15:41:41.520Z,1.50
2023-03-05T15:44:11.503Z,2.53
2023-03-05T15:46:40.122Z,1.53
2023-03-05T15:49:11.762Z,0.97
2023-03-05T15:51:40.361Z,2.40
2023-03-05T15:54:08.878Z,2.07
2023-03-05T15:56:37.845Z,1.53
2023-03-05T15:59:08.003Z,1.67
2023-03-05T16:01:41.070Z,3.23
2023-03-05T16:04:12.942Z,1.27
2023-03-05T16:06:41.904Z,2.03
2023-03-05T16:09:11.105Z,2.73
2023-03-05T16:11:40.103Z,0.87
2023-03-05T16:14:09.327Z,2.60
2023-03-05T16:16:40.678Z,1.27
2023-03-05T16:19:09.847Z,0.77
2023-03-05T16:21:38.440Z,1.10
2023-03-05T16:24:13.332Z,4.77
2023-03-05T16:26:42.300Z,2.20
2023-03-05T16:29:12.039Z,2.67
2023-03-05T16:31:43.207Z,2.37
2023-03-05T16:34:14.114Z,2.77
2023-03-05T16:36:53.039Z,2.50
2023-03-05T16:39:21.811Z,2.50
2023-03-05T16:41:50.989Z,1.43
2023-03-05T16:44:19.479Z,2.30
2023-03-05T16:46:53.389Z,1.47
2023-03-05T16:49:24.909Z,2.10
2023-03-05T16:51:53.694Z,2.70
2023-03-05T16:54:23.135Z,1.93
2023-03-05T16:56:51.601Z,4.63
2023-03-05T16:59:20.406Z,3.10
2023-03-05T17:01:50.623Z,7.27
2023-03-05T17:04:19.782Z,6.37
2023-03-05T17:06:49.340Z,1.53
2023-03-05T17:09:25.897Z,1.83
2023-03-05T17:11:54.792Z,2.40
2023-03-05T17:14:25.738Z,2.43
2023-03-05T17:16:55.740Z,2.97
2023-03-05T17:19:24.612Z,1.70
2023-03-05T17:21:56.137Z,1.90
2023-03-05T17:24:27.853Z,26.63
2023-03-05T17:26:56.436Z,12.47
2023-03-05T17:29:28.398Z,19.83
2023-03-05T17:31:58.525Z,2.40
2023-03-05T17:34:35.865Z,2.60
2023-03-05T17:37:05.241Z,3.57
2023-03-05T17:39:33.967Z,2.70
2023-03-05T17:42:02.752Z,2.40
2023-03-05T17:44:31.279Z,2.63
2023-03-05T17:47:01.093Z,3.83
2023-03-05T17:49:29.751Z,3.57
2023-03-05T17:51:58.357Z,2.70
2023-03-05T17:54:26.990Z,3.77
2023-03-05T17:56:56.766Z,6.13
2023-03-05T17:59:25.528Z,2.07
2023-03-05T18:01:54.368Z,2.87
2023-03-05T18:04:25.458Z,2.33
2023-03-05T18:06:59.161Z,2.70
2023-03-05T18:09:32.221Z,5.70
2023-03-05T18:12:03.661Z,3.30
2023-03-05T18:14:32.302Z,4.23
2023-03-05T18:17:04.036Z,11.83
2023-03-05T18:19:34.049Z,6.70
2023-03-05T18:22:02.867Z,11.27
2023-03-05T18:24:36.466Z,4.57
2023-03-05T18:27:04.955Z,2.63
2023-03-05T18:29:42.969Z,1.63
2023-03-05T18:32:11.621Z,3.00
2023-03-05T18:34:42.010Z,2.27
2023-03-05T18:37:10.635Z,1.50
2023-03-05T18:39:42.159Z,4.80
2023-03-05T18:42:12.595Z,1.70
2023-03-05T18:44:42.908Z,4.17
2023-03-05T18:47:11.587Z,2.67
2023-03-05T18:49:41.461Z,3.80
2023-03-05T18:52:11.231Z,2.60
2023-03-05T18:54:40.315Z,3.50
2023-03-05T18:57:08.729Z,3.67
2023-03-05T18:59:37.185Z,5.73
2023-03-05T19:02:05.862Z,5.23
2023-03-05T19:04:34.417Z,7.10
2023-03-05T19:07:04.864Z,6.83
2023-03-05T19:09:52.633Z,4.70
2023-03-05T19:12:22.727Z,3.87
2023-03-05T19:14:53.050Z,8.57
2023-03-05T19:17:23.420Z,2.37
2023-03-05T19:19:53.732Z,3.13
2023-03-05T19:22:28.063Z,4.83
2023-03-05T19:24:57.555Z,5.23
2023-03-05T19:27:32.281Z,4.33
2023-03-05T19:30:07.445Z,5.97
2023-03-05T19:32:36.059Z,5.83
2023-03-05T19:35:04.948Z,8.47
2023-03-05T19:37:34.916Z,6.13
2023-03-05T19:40:04.252Z,4.30
2023-03-05T19:42:32.765Z,10.37
2023-03-05T19:45:05.639Z,3.57
2023-03-05T19:47:40.231Z,4.80
2023-03-05T19:50:09.438Z,5.43
2023-03-05T19:52:39.357Z,3.00
2023-03-05T19:55:08.655Z,6.47
2023-03-05T19:57:40.433Z,3.93
2023-03-05T20:00:09.631Z,5.53
2023-03-05T20:02:38.119Z,5.53
2023-03-05T20:05:07.078Z,6.90
2023-03-05T20:07:35.474Z,7.40
2023-03-05T20:10:05.590Z,9.10
2023-03-05T20:12:37.825Z,8.83
2023-03-05T20:15:07.818Z,9.47
2023-03-05T20:17:37.841Z,6.10
2023-03-05T20:20:06.821Z,6.03
2023-03-05T20:22:35.269Z,6.03
2023-03-05T20:25:07.048Z,5.47
2023-03-05T20:27:35.634Z,4.40
2023-03-05T20:30:07.322Z,5.23
2023-03-05T20:32:38.932Z,5.37
2023-03-05T20:35:07.951Z,7.37
2023-03-05T20:37:49.527Z,10.73
2023-03-05T20:40:19.951Z,7.27
2023-03-05T20:42:48.777Z,7.63
2023-03-05T20:45:20.082Z,6.20
2023-03-05T20:47:51.646Z,8.00
2023-03-05T20:50:20.216Z,8.97
2023-03-05T20:52:48.605Z,10.87
2023-03-05T20:55:17.173Z,8.37
2023-03-05T20:57:47.142Z,8.60
2023-03-05T21:00:16.422Z,7.63
2023-03-05T21:02:45.084Z,8.87
2023-03-05T21:05:18.061Z,7.17
2023-03-05T21:07:49.358Z,8.10
2023-03-05T21:10:18.204Z,10.00
2023-03-05T21:12:48.364Z,11.97
2023-03-05T21:15:17.411Z,9.60
2023-03-05T21:17:46.327Z,7.53
2023-03-05T21:20:14.922Z,10.03
2023-03-05T21:22:43.351Z,10.10
2023-03-05T21:25:20.798Z,12.60
2023-03-05T21:27:54.088Z,9.23
2023-03-05T21:30:22.769Z,9.57
2023-03-05T21:32:51.361Z,13.77
2023-03-05T21:35:20.324Z,10.27
2023-03-05T21:37:48.696Z,14.57
2023-03-05T21:40:17.984Z,16.40
2023-03-05T21:42:46.561Z,17.57
2023-03-05T21:45:17.030Z,15.27
2023-03-05T21:47:45.580Z,14.60
2023-03-05T21:50:14.314Z,14.30
2023-03-05T21:52:42.787Z,10.30
2023-03-05T21:55:13.327Z,11.43
2023-03-05T21:57:41.756Z,9.13
2023-03-05T22:00:11.256Z,10.63
2023-03-05T22:02:41.541Z,11.53
2023-03-05T22:05:12.726Z,8.33
2023-03-05T22:07:41.584Z,9.67
2023-03-05T22:10:10.614Z,5.07
2023-03-05T22:12:51.867Z,8.37
2023-03-05T22:15:20.513Z,5.00
2023-03-05T22:17:50.678Z,4.10
2023-03-05T22:20:19.476Z,3.27
2023-03-05T22:22:47.919Z,3.20
2023-03-05T22:25:16.521Z,2.53
2023-03-05T22:27:45.339Z,5.60
2023-03-05T22:30:14.379Z,5.27
2023-03-05T22:32:42.788Z,8.20
2023-03-05T22:35:13.577Z,2.77
2023-03-05T22:37:42.964Z,5.50
2023-03-05T22:40:12.118Z,2.10
2023-03-05T22:42:41.368Z,4.53
2023-03-05T22:45:10.129Z,4.83
2023-03-05T22:47:39.121Z,4.57
2023-03-05T22:50:07.993Z,5.20
2023-03-05T22:52:38.316Z,4.80
2023-03-05T22:55:07.274Z,4.10
2023-03-05T22:57:35.738Z,3.90
2023-03-05T23:00:08.121Z,3.37
2023-03-05T23:02:36.721Z,4.67
2023-03-05T23:05:05.922Z,3.63
2023-03-05T23:07:35.822Z,3.27
2023-03-05T23:10:06.697Z,3.97
2023-03-05T23:12:35.679Z,3.93
2023-03-05T23:15:04.589Z,3.63
2023-03-05T23:17:33.197Z,2.17
2023-03-05T23:20:01.815Z,2.77
2023-03-05T23:22:31.906Z,2.30
2023-03-05T23:25:00.475Z,3.33
2023-03-05T23:27:30.774Z,2.60
2023-03-05T23:30:08.988Z,3.53
2023-03-05T23:32:37.468Z,3.40
2023-03-05T23:35:06.300Z,6.07
2023-03-05T23:37:34.728Z,3.53
2023-03-05T23:40:03.333Z,4.20
2023-03-05T23:42:33.277Z,3.60
2023-03-05T23:45:01.753Z,4.83
2023-03-05T23:47:30.429Z,4.77
2023-03-05T23:49:58.906Z,3.30
2023-03-05T23:52:27.387Z,4.03
2023-03-05T23:54:55.936Z,6.60
2023-03-05T23:57:24.538Z,7.17
2023-03-05T23:59:54.525Z,5.27
